Weather at P D Helispot

Public forecast

Using degrees Fahrenheit for public forecast. Weather courtesy of forecast.io.

Closest aviation weather report (METAR) to P D Helispot

Closest report is Safford Regional Airport, 41.0 nm (76.0 km) SSW. Retrieved 2022/01/22 20:51 UTC (44 minutes ago):

KSAD 222051Z AUTO 15008KT 10SM BKN070 OVC090 14/M02 A3001 RMK AO2 SLP144 T01441017 58025

Closest aviation forecast (TAF) to P D Helispot

Closest forecast is Truth or Consequences Municipal Airport, 104.7 nm (194.0 km) E. Retrieved 2022/01/22 18:27 UTC (3 hours ago):

TAF KTCS 221724Z 2218/2318 03015G25KT P6SM BKN060 FM222300 07008KT P6SM SCT250 FM230300 35007KT P6SM BKN250